sensor_id;sensor_type;location;lat;lon;timestamp;P1;durP1;ratioP1;P2;durP2;ratioP2
173;SDS011;75;48.784;9.364;2023-06-04T00:00:51;14.30;;;9.10;;
173;SDS011;75;48.784;9.364;2023-06-04T00:03:17;14.90;;;10.10;;
173;SDS011;75;48.784;9.364;2023-06-04T00:05:43;13.23;;;9.40;;
173;SDS011;75;48.784;9.364;2023-06-04T00:08:09;12.67;;;8.83;;
173;SDS011;75;48.784;9.364;2023-06-04T00:10:35;13.50;;;9.10;;
173;SDS011;75;48.784;9.364;2023-06-04T00:13:01;11.67;;;8.87;;
173;SDS011;75;48.784;9.364;2023-06-04T00:15:27;14.57;;;8.80;;
173;SDS011;75;48.784;9.364;2023-06-04T00:17:53;14.07;;;9.03;;
173;SDS011;75;48.784;9.364;2023-06-04T00:20:21;13.57;;;8.83;;
173;SDS011;75;48.784;9.364;2023-06-04T00:22:47;11.83;;;7.80;;
173;SDS011;75;48.784;9.364;2023-06-04T00:25:13;12.20;;;8.00;;
173;SDS011;75;48.784;9.364;2023-06-04T00:27:39;11.67;;;7.83;;
173;SDS011;75;48.784;9.364;2023-06-04T00:30:05;11.10;;;7.80;;
173;SDS011;75;48.784;9.364;2023-06-04T00:32:32;12.90;;;9.10;;
173;SDS011;75;48.784;9.364;2023-06-04T00:34:58;15.80;;;9.10;;
173;SDS011;75;48.784;9.364;2023-06-04T00:37:24;15.33;;;9.27;;
173;SDS011;75;48.784;9.364;2023-06-04T00:39:50;11.17;;;8.40;;
173;SDS011;75;48.784;9.364;2023-06-04T00:42:17;12.10;;;8.40;;
173;SDS011;75;48.784;9.364;2023-06-04T00:44:43;12.13;;;8.87;;
173;SDS011;75;48.784;9.364;2023-06-04T00:47:15;13.60;;;8.17;;
173;SDS011;75;48.784;9.364;2023-06-04T00:49:41;10.60;;;7.70;;
173;SDS011;75;48.784;9.364;2023-06-04T00:52:08;12.40;;;7.10;;
173;SDS011;75;48.784;9.364;2023-06-04T00:54:34;10.37;;;7.60;;
173;SDS011;75;48.784;9.364;2023-06-04T00:57:01;13.87;;;7.63;;
173;SDS011;75;48.784;9.364;2023-06-04T00:59:28;10.43;;;7.40;;
173;SDS011;75;48.784;9.364;2023-06-04T01:01:56;11.30;;;7.90;;
173;SDS011;75;48.784;9.364;2023-06-04T01:04:26;10.70;;;7.50;;
173;SDS011;75;48.784;9.364;2023-06-04T01:06:53;10.63;;;7.43;;
173;SDS011;75;48.784;9.364;2023-06-04T01:09:19;11.17;;;7.80;;
173;SDS011;75;48.784;9.364;2023-06-04T01:11:45;11.97;;;8.77;;
173;SDS011;75;48.784;9.364;2023-06-04T01:14:11;11.93;;;8.50;;
173;SDS011;75;48.784;9.364;2023-06-04T01:16:48;12.90;;;7.80;;
173;SDS011;75;48.784;9.364;2023-06-04T01:19:20;12.53;;;8.70;;
173;SDS011;75;48.784;9.364;2023-06-04T01:21:50;11.37;;;7.70;;
173;SDS011;75;48.784;9.364;2023-06-04T01:24:16;10.60;;;7.80;;
173;SDS011;75;48.784;9.364;2023-06-04T01:26:43;8.77;;;6.90;;
173;SDS011;75;48.784;9.364;2023-06-04T01:29:09;9.83;;;6.63;;
173;SDS011;75;48.784;9.364;2023-06-04T01:31:35;11.30;;;7.50;;
173;SDS011;75;48.784;9.364;2023-06-04T01:34:02;9.27;;;6.93;;
173;SDS011;75;48.784;9.364;2023-06-04T01:36:27;13.17;;;6.67;;
173;SDS011;75;48.784;9.364;2023-06-04T01:38:53;10.20;;;6.93;;
173;SDS011;75;48.784;9.364;2023-06-04T01:41:19;14.13;;;7.33;;
173;SDS011;75;48.784;9.364;2023-06-04T01:43:45;10.40;;;7.23;;
173;SDS011;75;48.784;9.364;2023-06-04T01:46:11;9.90;;;7.07;;
173;SDS011;75;48.784;9.364;2023-06-04T01:48:37;10.30;;;6.97;;
173;SDS011;75;48.784;9.364;2023-06-04T01:51:04;10.50;;;6.90;;
173;SDS011;75;48.784;9.364;2023-06-04T01:53:31;10.73;;;7.20;;
173;SDS011;75;48.784;9.364;2023-06-04T01:55:57;11.10;;;7.00;;
173;SDS011;75;48.784;9.364;2023-06-04T01:58:23;9.20;;;6.07;;
173;SDS011;75;48.784;9.364;2023-06-04T02:00:52;12.10;;;7.33;;
173;SDS011;75;48.784;9.364;2023-06-04T02:03:18;9.40;;;5.90;;
173;SDS011;75;48.784;9.364;2023-06-04T02:05:45;9.87;;;6.60;;
173;SDS011;75;48.784;9.364;2023-06-04T02:08:11;9.00;;;6.47;;
173;SDS011;75;48.784;9.364;2023-06-04T02:10:43;9.00;;;6.33;;
173;SDS011;75;48.784;9.364;2023-06-04T02:13:09;8.20;;;5.83;;
173;SDS011;75;48.784;9.364;2023-06-04T02:15:35;9.17;;;6.20;;
173;SDS011;75;48.784;9.364;2023-06-04T02:20:57;9.47;;;6.50;;
173;SDS011;75;48.784;9.364;2023-06-04T02:23:23;9.20;;;6.00;;
173;SDS011;75;48.784;9.364;2023-06-04T02:25:49;8.77;;;5.53;;
173;SDS011;75;48.784;9.364;2023-06-04T02:28:15;8.93;;;6.37;;
173;SDS011;75;48.784;9.364;2023-06-04T02:30:41;8.80;;;6.13;;
173;SDS011;75;48.784;9.364;2023-06-04T02:33:07;9.50;;;6.07;;
173;SDS011;75;48.784;9.364;2023-06-04T02:35:34;8.07;;;5.70;;
173;SDS011;75;48.784;9.364;2023-06-04T02:38:01;9.37;;;5.83;;
173;SDS011;75;48.784;9.364;2023-06-04T02:40:27;7.63;;;5.57;;
173;SDS011;75;48.784;9.364;2023-06-04T02:42:54;10.53;;;6.07;;
173;SDS011;75;48.784;9.364;2023-06-04T02:45:20;12.67;;;6.17;;
173;SDS011;75;48.784;9.364;2023-06-04T02:47:46;8.50;;;5.67;;
173;SDS011;75;48.784;9.364;2023-06-04T02:50:13;9.23;;;5.90;;
173;SDS011;75;48.784;9.364;2023-06-04T02:52:40;7.50;;;5.40;;
173;SDS011;75;48.784;9.364;2023-06-04T02:55:07;9.77;;;6.00;;
173;SDS011;75;48.784;9.364;2023-06-04T02:57:34;9.00;;;5.47;;
173;SDS011;75;48.784;9.364;2023-06-04T03:00:00;10.07;;;6.10;;
173;SDS011;75;48.784;9.364;2023-06-04T03:02:26;7.47;;;5.23;;
173;SDS011;75;48.784;9.364;2023-06-04T03:04:52;11.43;;;5.93;;
173;SDS011;75;48.784;9.364;2023-06-04T03:07:20;8.50;;;5.50;;
173;SDS011;75;48.784;9.364;2023-06-04T03:09:47;8.47;;;5.87;;
173;SDS011;75;48.784;9.364;2023-06-04T03:12:13;10.90;;;5.77;;
173;SDS011;75;48.784;9.364;2023-06-04T03:14:39;10.63;;;5.73;;
173;SDS011;75;48.784;9.364;2023-06-04T03:17:05;7.50;;;5.40;;
173;SDS011;75;48.784;9.364;2023-06-04T03:19:38;10.20;;;5.47;;
173;SDS011;75;48.784;9.364;2023-06-04T03:22:05;8.87;;;6.13;;
173;SDS011;75;48.784;9.364;2023-06-04T03:24:35;7.50;;;5.17;;
173;SDS011;75;48.784;9.364;2023-06-04T03:27:01;7.50;;;5.10;;
173;SDS011;75;48.784;9.364;2023-06-04T03:29:28;7.90;;;4.90;;
173;SDS011;75;48.784;9.364;2023-06-04T03:31:55;7.47;;;4.97;;
173;SDS011;75;48.784;9.364;2023-06-04T03:34:21;7.00;;;5.33;;
173;SDS011;75;48.784;9.364;2023-06-04T03:36:53;8.17;;;5.37;;
173;SDS011;75;48.784;9.364;2023-06-04T03:39:19;8.53;;;5.00;;
173;SDS011;75;48.784;9.364;2023-06-04T03:41:45;6.57;;;5.03;;
173;SDS011;75;48.784;9.364;2023-06-04T03:44:18;9.03;;;4.80;;
173;SDS011;75;48.784;9.364;2023-06-04T03:46:44;6.73;;;4.60;;
173;SDS011;75;48.784;9.364;2023-06-04T03:49:10;8.47;;;4.83;;
173;SDS011;75;48.784;9.364;2023-06-04T03:51:37;7.53;;;5.17;;
173;SDS011;75;48.784;9.364;2023-06-04T03:54:03;7.50;;;4.73;;
173;SDS011;75;48.784;9.364;2023-06-04T03:56:29;7.67;;;5.10;;
173;SDS011;75;48.784;9.364;2023-06-04T03:58:55;10.83;;;4.87;;
173;SDS011;75;48.784;9.364;2023-06-04T04:01:22;6.17;;;4.60;;
173;SDS011;75;48.784;9.364;2023-06-04T04:03:48;7.50;;;4.60;;
173;SDS011;75;48.784;9.364;2023-06-04T04:06:15;6.90;;;4.50;;
173;SDS011;75;48.784;9.364;2023-06-04T04:08:41;5.93;;;4.30;;
173;SDS011;75;48.784;9.364;2023-06-04T04:11:09;8.90;;;5.03;;
173;SDS011;75;48.784;9.364;2023-06-04T04:13:35;7.80;;;4.57;;
173;SDS011;75;48.784;9.364;2023-06-04T04:16:01;6.90;;;4.23;;
173;SDS011;75;48.784;9.364;2023-06-04T04:18:27;7.33;;;4.20;;
173;SDS011;75;48.784;9.364;2023-06-04T04:20:53;7.40;;;5.10;;
173;SDS011;75;48.784;9.364;2023-06-04T04:23:20;7.37;;;4.80;;
173;SDS011;75;48.784;9.364;2023-06-04T04:25:48;8.37;;;4.50;;
173;SDS011;75;48.784;9.364;2023-06-04T04:28:14;9.80;;;4.90;;
173;SDS011;75;48.784;9.364;2023-06-04T04:30:42;9.20;;;4.70;;
173;SDS011;75;48.784;9.364;2023-06-04T04:33:09;7.03;;;4.80;;
173;SDS011;75;48.784;9.364;2023-06-04T04:35:35;11.30;;;5.43;;
173;SDS011;75;48.784;9.364;2023-06-04T04:38:02;8.93;;;5.30;;
173;SDS011;75;48.784;9.364;2023-06-04T04:40:31;7.10;;;5.10;;
173;SDS011;75;48.784;9.364;2023-06-04T04:42:57;8.47;;;4.63;;
173;SDS011;75;48.784;9.364;2023-06-04T04:45:23;7.33;;;4.40;;
173;SDS011;75;48.784;9.364;2023-06-04T04:47:50;7.90;;;4.43;;
173;SDS011;75;48.784;9.364;2023-06-04T04:50:16;8.30;;;4.57;;
173;SDS011;75;48.784;9.364;2023-06-04T04:52:42;7.63;;;4.97;;
173;SDS011;75;48.784;9.364;2023-06-04T04:55:08;7.33;;;4.60;;
173;SDS011;75;48.784;9.364;2023-06-04T04:57:35;6.97;;;4.40;;
173;SDS011;75;48.784;9.364;2023-06-04T05:00:02;7.13;;;4.70;;
173;SDS011;75;48.784;9.364;2023-06-04T05:02:30;7.00;;;4.10;;
173;SDS011;75;48.784;9.364;2023-06-04T05:04:56;6.80;;;4.80;;
173;SDS011;75;48.784;9.364;2023-06-04T05:07:22;8.80;;;4.67;;
173;SDS011;75;48.784;9.364;2023-06-04T05:09:49;6.53;;;4.60;;
173;SDS011;75;48.784;9.364;2023-06-04T05:12:15;8.63;;;5.23;;
173;SDS011;75;48.784;9.364;2023-06-04T05:14:42;7.57;;;5.33;;
173;SDS011;75;48.784;9.364;2023-06-04T05:17:08;9.20;;;4.93;;
173;SDS011;75;48.784;9.364;2023-06-04T05:19:35;8.03;;;4.90;;
173;SDS011;75;48.784;9.364;2023-06-04T05:22:02;7.73;;;5.03;;
173;SDS011;75;48.784;9.364;2023-06-04T05:24:28;9.00;;;5.23;;
173;SDS011;75;48.784;9.364;2023-06-04T05:26:54;9.47;;;5.70;;
173;SDS011;75;48.784;9.364;2023-06-04T05:29:21;10.60;;;6.23;;
173;SDS011;75;48.784;9.364;2023-06-04T05:31:47;8.90;;;5.90;;
173;SDS011;75;48.784;9.364;2023-06-04T05:34:13;8.50;;;5.90;;
173;SDS011;75;48.784;9.364;2023-06-04T05:36:41;10.20;;;6.73;;
173;SDS011;75;48.784;9.364;2023-06-04T05:39:07;9.63;;;6.23;;
173;SDS011;75;48.784;9.364;2023-06-04T05:41:34;11.07;;;6.53;;
173;SDS011;75;48.784;9.364;2023-06-04T05:44:00;9.93;;;6.40;;
173;SDS011;75;48.784;9.364;2023-06-04T05:46:26;10.03;;;6.90;;
173;SDS011;75;48.784;9.364;2023-06-04T05:48:52;9.97;;;6.60;;
173;SDS011;75;48.784;9.364;2023-06-04T05:51:19;10.10;;;7.17;;
173;SDS011;75;48.784;9.364;2023-06-04T05:53:45;11.20;;;6.53;;
173;SDS011;75;48.784;9.364;2023-06-04T05:56:12;9.77;;;5.93;;
173;SDS011;75;48.784;9.364;2023-06-04T05:58:38;11.57;;;5.93;;
173;SDS011;75;48.784;9.364;2023-06-04T06:01:04;9.30;;;6.03;;
173;SDS011;75;48.784;9.364;2023-06-04T06:03:30;7.13;;;5.30;;
173;SDS011;75;48.784;9.364;2023-06-04T06:05:56;8.67;;;5.47;;
173;SDS011;75;48.784;9.364;2023-06-04T06:08:24;8.63;;;5.70;;
173;SDS011;75;48.784;9.364;2023-06-04T06:10:50;8.30;;;5.23;;
173;SDS011;75;48.784;9.364;2023-06-04T06:13:16;8.40;;;5.10;;
173;SDS011;75;48.784;9.364;2023-06-04T06:15:42;9.70;;;4.63;;
173;SDS011;75;48.784;9.364;2023-06-04T06:18:09;9.70;;;4.70;;
173;SDS011;75;48.784;9.364;2023-06-04T06:20:35;7.33;;;4.67;;
173;SDS011;75;48.784;9.364;2023-06-04T06:23:07;6.43;;;3.90;;
173;SDS011;75;48.784;9.364;2023-06-04T06:25:33;8.73;;;4.40;;
173;SDS011;75;48.784;9.364;2023-06-04T06:27:59;6.03;;;3.83;;
173;SDS011;75;48.784;9.364;2023-06-04T06:30:25;9.13;;;3.63;;
173;SDS011;75;48.784;9.364;2023-06-04T06:32:51;6.10;;;4.10;;
173;SDS011;75;48.784;9.364;2023-06-04T06:35:18;7.93;;;4.57;;
173;SDS011;75;48.784;9.364;2023-06-04T06:37:44;9.70;;;4.27;;
173;SDS011;75;48.784;9.364;2023-06-04T06:40:10;6.53;;;3.73;;
173;SDS011;75;48.784;9.364;2023-06-04T06:42:36;5.50;;;3.90;;
173;SDS011;75;48.784;9.364;2023-06-04T06:45:02;7.20;;;4.00;;
173;SDS011;75;48.784;9.364;2023-06-04T06:47:28;5.97;;;3.80;;
173;SDS011;75;48.784;9.364;2023-06-04T06:49:54;6.93;;;4.27;;
173;SDS011;75;48.784;9.364;2023-06-04T06:52:20;5.70;;;4.17;;
173;SDS011;75;48.784;9.364;2023-06-04T06:54:46;6.00;;;3.80;;
173;SDS011;75;48.784;9.364;2023-06-04T06:57:13;9.60;;;4.07;;
173;SDS011;75;48.784;9.364;2023-06-04T06:59:39;9.87;;;4.40;;
173;SDS011;75;48.784;9.364;2023-06-04T07:02:05;8.50;;;4.30;;
173;SDS011;75;48.784;9.364;2023-06-04T07:04:31;6.50;;;4.53;;
173;SDS011;75;48.784;9.364;2023-06-04T07:06:57;5.83;;;4.40;;
173;SDS011;75;48.784;9.364;2023-06-04T07:09:23;7.80;;;4.43;;
173;SDS011;75;48.784;9.364;2023-06-04T07:11:49;8.30;;;4.23;;
173;SDS011;75;48.784;9.364;2023-06-04T07:14:15;5.53;;;3.93;;
173;SDS011;75;48.784;9.364;2023-06-04T07:16:41;6.50;;;4.43;;
173;SDS011;75;48.784;9.364;2023-06-04T07:19:07;8.63;;;4.67;;
173;SDS011;75;48.784;9.364;2023-06-04T07:21:33;7.60;;;4.10;;
173;SDS011;75;48.784;9.364;2023-06-04T07:23:59;6.43;;;4.00;;
173;SDS011;75;48.784;9.364;2023-06-04T07:26:25;8.87;;;4.40;;
173;SDS011;75;48.784;9.364;2023-06-04T07:28:51;8.73;;;4.40;;
173;SDS011;75;48.784;9.364;2023-06-04T07:31:17;8.03;;;4.53;;
173;SDS011;75;48.784;9.364;2023-06-04T07:33:43;7.23;;;4.53;;
173;SDS011;75;48.784;9.364;2023-06-04T07:36:12;7.33;;;4.20;;
173;SDS011;75;48.784;9.364;2023-06-04T07:38:39;6.70;;;4.30;;
173;SDS011;75;48.784;9.364;2023-06-04T07:41:05;6.23;;;3.93;;
173;SDS011;75;48.784;9.364;2023-06-04T07:43:32;6.77;;;4.20;;
173;SDS011;75;48.784;9.364;2023-06-04T07:45:59;9.43;;;4.17;;
173;SDS011;75;48.784;9.364;2023-06-04T07:48:25;5.93;;;4.03;;
173;SDS011;75;48.784;9.364;2023-06-04T07:50:55;8.03;;;4.50;;
173;SDS011;75;48.784;9.364;2023-06-04T07:53:21;6.33;;;4.27;;
173;SDS011;75;48.784;9.364;2023-06-04T07:55:47;9.30;;;4.70;;
173;SDS011;75;48.784;9.364;2023-06-04T07:58:13;7.40;;;4.20;;
173;SDS011;75;48.784;9.364;2023-06-04T08:00:40;6.20;;;4.10;;
173;SDS011;75;48.784;9.364;2023-06-04T08:03:06;7.63;;;4.30;;
173;SDS011;75;48.784;9.364;2023-06-04T08:05:32;10.43;;;4.70;;
173;SDS011;75;48.784;9.364;2023-06-04T08:07:58;6.97;;;4.70;;
173;SDS011;75;48.784;9.364;2023-06-04T08:10:25;6.40;;;4.30;;
173;SDS011;75;48.784;9.364;2023-06-04T08:12:51;8.60;;;4.60;;
173;SDS011;75;48.784;9.364;2023-06-04T08:15:17;6.10;;;4.23;;
173;SDS011;75;48.784;9.364;2023-06-04T08:17:43;7.40;;;4.40;;
173;SDS011;75;48.784;9.364;2023-06-04T08:20:09;8.13;;;4.60;;
173;SDS011;75;48.784;9.364;2023-06-04T08:22:36;9.50;;;4.93;;
173;SDS011;75;48.784;9.364;2023-06-04T08:25:02;7.70;;;4.53;;
173;SDS011;75;48.784;9.364;2023-06-04T08:27:29;9.97;;;4.90;;
173;SDS011;75;48.784;9.364;2023-06-04T08:29:55;6.10;;;4.43;;
173;SDS011;75;48.784;9.364;2023-06-04T08:32:22;9.87;;;4.80;;
173;SDS011;75;48.784;9.364;2023-06-04T08:34:48;7.50;;;4.50;;
173;SDS011;75;48.784;9.364;2023-06-04T08:37:15;5.90;;;4.30;;
173;SDS011;75;48.784;9.364;2023-06-04T08:39:41;8.93;;;4.67;;
173;SDS011;75;48.784;9.364;2023-06-04T08:42:07;7.63;;;4.60;;
173;SDS011;75;48.784;9.364;2023-06-04T08:44:34;8.47;;;5.20;;
173;SDS011;75;48.784;9.364;2023-06-04T08:47:04;8.30;;;4.63;;
173;SDS011;75;48.784;9.364;2023-06-04T08:49:34;6.83;;;4.43;;
173;SDS011;75;48.784;9.364;2023-06-04T08:52:01;7.20;;;4.40;;
173;SDS011;75;48.784;9.364;2023-06-04T08:54:28;11.03;;;4.87;;
173;SDS011;75;48.784;9.364;2023-06-04T08:56:58;7.50;;;4.70;;
173;SDS011;75;48.784;9.364;2023-06-04T08:59:24;6.70;;;4.70;;
173;SDS011;75;48.784;9.364;2023-06-04T09:01:53;9.53;;;4.83;;
173;SDS011;75;48.784;9.364;2023-06-04T09:04:19;11.37;;;4.80;;
173;SDS011;75;48.784;9.364;2023-06-04T09:06:46;8.40;;;4.40;;
173;SDS011;75;48.784;9.364;2023-06-04T09:09:12;7.43;;;5.13;;
173;SDS011;75;48.784;9.364;2023-06-04T09:11:53;7.57;;;4.70;;
173;SDS011;75;48.784;9.364;2023-06-04T09:14:19;8.63;;;4.70;;
173;SDS011;75;48.784;9.364;2023-06-04T09:16:49;8.70;;;5.00;;
173;SDS011;75;48.784;9.364;2023-06-04T09:19:16;7.43;;;4.60;;
173;SDS011;75;48.784;9.364;2023-06-04T09:22:00;13.70;;;5.07;;
173;SDS011;75;48.784;9.364;2023-06-04T09:24:43;6.60;;;4.40;;
173;SDS011;75;48.784;9.364;2023-06-04T09:27:17;8.23;;;5.00;;
173;SDS011;75;48.784;9.364;2023-06-04T09:29:56;6.97;;;5.10;;
173;SDS011;75;48.784;9.364;2023-06-04T09:34:48;6.23;;;4.50;;
173;SDS011;75;48.784;9.364;2023-06-04T09:37:15;6.70;;;4.70;;
173;SDS011;75;48.784;9.364;2023-06-04T09:39:42;11.27;;;5.27;;
173;SDS011;75;48.784;9.364;2023-06-04T09:42:08;9.40;;;4.67;;
173;SDS011;75;48.784;9.364;2023-06-04T09:44:42;7.60;;;5.20;;
173;SDS011;75;48.784;9.364;2023-06-04T09:47:10;10.13;;;5.37;;
173;SDS011;75;48.784;9.364;2023-06-04T09:49:40;9.40;;;5.27;;
173;SDS011;75;48.784;9.364;2023-06-04T09:52:06;11.17;;;5.50;;
173;SDS011;75;48.784;9.364;2023-06-04T09:54:38;9.00;;;5.20;;
173;SDS011;75;48.784;9.364;2023-06-04T09:57:13;7.40;;;5.10;;
173;SDS011;75;48.784;9.364;2023-06-04T09:59:41;10.90;;;5.33;;
173;SDS011;75;48.784;9.364;2023-06-04T10:02:08;10.83;;;5.80;;
173;SDS011;75;48.784;9.364;2023-06-04T10:04:35;9.40;;;5.60;;
173;SDS011;75;48.784;9.364;2023-06-04T10:07:03;7.57;;;5.23;;
173;SDS011;75;48.784;9.364;2023-06-04T10:09:29;9.67;;;6.17;;
173;SDS011;75;48.784;9.364;2023-06-04T10:11:56;9.33;;;5.60;;
173;SDS011;75;48.784;9.364;2023-06-04T10:14:23;8.67;;;5.43;;
173;SDS011;75;48.784;9.364;2023-06-04T10:16:51;8.70;;;5.80;;
173;SDS011;75;48.784;9.364;2023-06-04T10:19:18;7.27;;;5.33;;
173;SDS011;75;48.784;9.364;2023-06-04T10:21:44;11.10;;;6.17;;
173;SDS011;75;48.784;9.364;2023-06-04T10:24:12;8.93;;;5.80;;
173;SDS011;75;48.784;9.364;2023-06-04T10:26:38;9.10;;;5.67;;
173;SDS011;75;48.784;9.364;2023-06-04T10:29:05;8.67;;;5.77;;
173;SDS011;75;48.784;9.364;2023-06-04T10:31:32;8.50;;;5.70;;
173;SDS011;75;48.784;9.364;2023-06-04T10:33:58;6.77;;;5.00;;
173;SDS011;75;48.784;9.364;2023-06-04T10:36:24;9.00;;;5.50;;
173;SDS011;75;48.784;9.364;2023-06-04T10:38:51;8.00;;;5.63;;
173;SDS011;75;48.784;9.364;2023-06-04T10:41:18;11.10;;;5.77;;
173;SDS011;75;48.784;9.364;2023-06-04T10:43:46;8.53;;;5.60;;
173;SDS011;75;48.784;9.364;2023-06-04T10:46:15;7.70;;;5.53;;
173;SDS011;75;48.784;9.364;2023-06-04T10:48:45;9.53;;;5.70;;
173;SDS011;75;48.784;9.364;2023-06-04T10:51:10;9.63;;;6.20;;
173;SDS011;75;48.784;9.364;2023-06-04T10:53:36;9.13;;;5.87;;
173;SDS011;75;48.784;9.364;2023-06-04T10:56:02;8.53;;;5.77;;
173;SDS011;75;48.784;9.364;2023-06-04T10:58:35;10.37;;;5.60;;
173;SDS011;75;48.784;9.364;2023-06-04T11:01:01;8.87;;;5.67;;
173;SDS011;75;48.784;9.364;2023-06-04T11:03:36;9.57;;;5.47;;
173;SDS011;75;48.784;9.364;2023-06-04T11:06:03;10.03;;;5.90;;
173;SDS011;75;48.784;9.364;2023-06-04T11:08:40;9.20;;;5.70;;
173;SDS011;75;48.784;9.364;2023-06-04T11:11:13;11.20;;;5.90;;
173;SDS011;75;48.784;9.364;2023-06-04T11:13:39;12.23;;;6.10;;
173;SDS011;75;48.784;9.364;2023-06-04T11:16:15;11.00;;;6.03;;
173;SDS011;75;48.784;9.364;2023-06-04T11:18:42;9.47;;;5.53;;
173;SDS011;75;48.784;9.364;2023-06-04T11:21:08;9.47;;;5.90;;
173;SDS011;75;48.784;9.364;2023-06-04T11:23:36;13.93;;;7.90;;
173;SDS011;75;48.784;9.364;2023-06-04T11:26:02;11.27;;;6.77;;
173;SDS011;75;48.784;9.364;2023-06-04T11:28:28;9.80;;;6.63;;
173;SDS011;75;48.784;9.364;2023-06-04T11:31:00;15.83;;;6.37;;
173;SDS011;75;48.784;9.364;2023-06-04T11:33:45;11.63;;;5.80;;
173;SDS011;75;48.784;9.364;2023-06-04T11:36:25;9.20;;;5.97;;
173;SDS011;75;48.784;9.364;2023-06-04T11:38:55;8.90;;;5.90;;
173;SDS011;75;48.784;9.364;2023-06-04T11:41:27;12.97;;;6.80;;
173;SDS011;75;48.784;9.364;2023-06-04T11:43:53;11.13;;;6.00;;
173;SDS011;75;48.784;9.364;2023-06-04T11:46:19;9.70;;;5.90;;
173;SDS011;75;48.784;9.364;2023-06-04T11:48:45;10.40;;;6.10;;
173;SDS011;75;48.784;9.364;2023-06-04T11:51:11;8.43;;;5.60;;
173;SDS011;75;48.784;9.364;2023-06-04T11:53:37;7.80;;;5.43;;
173;SDS011;75;48.784;9.364;2023-06-04T11:56:04;8.40;;;5.90;;
173;SDS011;75;48.784;9.364;2023-06-04T11:58:30;8.17;;;6.00;;
173;SDS011;75;48.784;9.364;2023-06-04T12:00:57;7.97;;;5.70;;
173;SDS011;75;48.784;9.364;2023-06-04T12:03:36;7.70;;;5.60;;
173;SDS011;75;48.784;9.364;2023-06-04T12:06:12;6.67;;;5.13;;
173;SDS011;75;48.784;9.364;2023-06-04T12:08:48;7.67;;;5.87;;
173;SDS011;75;48.784;9.364;2023-06-04T12:11:23;8.47;;;5.50;;
173;SDS011;75;48.784;9.364;2023-06-04T12:13:50;8.13;;;6.07;;
173;SDS011;75;48.784;9.364;2023-06-04T12:16:16;9.33;;;5.60;;
173;SDS011;75;48.784;9.364;2023-06-04T12:18:42;8.80;;;5.93;;
173;SDS011;75;48.784;9.364;2023-06-04T12:21:18;12.20;;;6.37;;
173;SDS011;75;48.784;9.364;2023-06-04T12:23:44;8.30;;;5.77;;
173;SDS011;75;48.784;9.364;2023-06-04T12:26:23;8.77;;;5.50;;
173;SDS011;75;48.784;9.364;2023-06-04T12:29:00;10.00;;;5.50;;
173;SDS011;75;48.784;9.364;2023-06-04T12:31:26;12.37;;;6.10;;
173;SDS011;75;48.784;9.364;2023-06-04T12:33:56;11.50;;;5.70;;
173;SDS011;75;48.784;9.364;2023-06-04T12:36:22;7.83;;;5.23;;
173;SDS011;75;48.784;9.364;2023-06-04T12:38:48;8.10;;;5.60;;
173;SDS011;75;48.784;9.364;2023-06-04T12:41:14;14.60;;;5.67;;
173;SDS011;75;48.784;9.364;2023-06-04T12:43:40;10.47;;;5.90;;
173;SDS011;75;48.784;9.364;2023-06-04T12:46:06;11.20;;;6.20;;
173;SDS011;75;48.784;9.364;2023-06-04T12:48:32;12.33;;;6.50;;
173;SDS011;75;48.784;9.364;2023-06-04T12:50:58;8.40;;;5.90;;
173;SDS011;75;48.784;9.364;2023-06-04T12:53:25;8.53;;;6.07;;
173;SDS011;75;48.784;9.364;2023-06-04T12:55:51;8.00;;;6.27;;
173;SDS011;75;48.784;9.364;2023-06-04T12:58:17;13.43;;;5.97;;
173;SDS011;75;48.784;9.364;2023-06-04T13:00:43;9.53;;;6.60;;
173;SDS011;75;48.784;9.364;2023-06-04T13:03:09;9.43;;;6.40;;
173;SDS011;75;48.784;9.364;2023-06-04T13:05:36;8.30;;;4.57;;
173;SDS011;75;48.784;9.364;2023-06-04T13:08:02;8.47;;;5.60;;
173;SDS011;75;48.784;9.364;2023-06-04T13:10:28;7.77;;;5.80;;
173;SDS011;75;48.784;9.364;2023-06-04T13:12:54;8.70;;;6.03;;
173;SDS011;75;48.784;9.364;2023-06-04T13:15:20;7.90;;;5.87;;
173;SDS011;75;48.784;9.364;2023-06-04T13:17:47;7.63;;;5.67;;
173;SDS011;75;48.784;9.364;2023-06-04T13:20:13;7.93;;;5.97;;
173;SDS011;75;48.784;9.364;2023-06-04T13:22:39;8.70;;;5.40;;
173;SDS011;75;48.784;9.364;2023-06-04T13:25:05;8.80;;;5.80;;
173;SDS011;75;48.784;9.364;2023-06-04T13:27:31;7.87;;;5.73;;
173;SDS011;75;48.784;9.364;2023-06-04T13:29:57;8.83;;;5.70;;
173;SDS011;75;48.784;9.364;2023-06-04T13:32:23;10.47;;;6.10;;
173;SDS011;75;48.784;9.364;2023-06-04T13:34:49;11.03;;;5.77;;
173;SDS011;75;48.784;9.364;2023-06-04T13:37:15;13.13;;;5.20;;
173;SDS011;75;48.784;9.364;2023-06-04T13:39:41;15.00;;;5.83;;
173;SDS011;75;48.784;9.364;2023-06-04T13:42:07;9.50;;;5.80;;
173;SDS011;75;48.784;9.364;2023-06-04T13:44:33;8.90;;;6.03;;
173;SDS011;75;48.784;9.364;2023-06-04T13:46:59;12.43;;;6.13;;
173;SDS011;75;48.784;9.364;2023-06-04T13:49:26;8.57;;;6.07;;
173;SDS011;75;48.784;9.364;2023-06-04T13:51:52;12.43;;;6.00;;
173;SDS011;75;48.784;9.364;2023-06-04T13:54:18;7.07;;;5.50;;
173;SDS011;75;48.784;9.364;2023-06-04T13:56:44;9.43;;;5.90;;
173;SDS011;75;48.784;9.364;2023-06-04T13:59:10;8.60;;;6.07;;
173;SDS011;75;48.784;9.364;2023-06-04T14:01:36;14.30;;;6.33;;
173;SDS011;75;48.784;9.364;2023-06-04T14:04:02;8.47;;;5.63;;
173;SDS011;75;48.784;9.364;2023-06-04T14:06:31;10.03;;;5.63;;
173;SDS011;75;48.784;9.364;2023-06-04T14:08:57;8.30;;;5.40;;
173;SDS011;75;48.784;9.364;2023-06-04T14:11:23;7.33;;;5.40;;
173;SDS011;75;48.784;9.364;2023-06-04T14:13:49;6.90;;;5.30;;
173;SDS011;75;48.784;9.364;2023-06-04T14:16:15;7.70;;;5.40;;
173;SDS011;75;48.784;9.364;2023-06-04T14:18:40;12.30;;;5.60;;
173;SDS011;75;48.784;9.364;2023-06-04T14:21:06;8.00;;;5.50;;
173;SDS011;75;48.784;9.364;2023-06-04T14:23:33;9.30;;;5.53;;
173;SDS011;75;48.784;9.364;2023-06-04T14:25:59;7.87;;;5.30;;
173;SDS011;75;48.784;9.364;2023-06-04T14:28:25;8.50;;;6.13;;
173;SDS011;75;48.784;9.364;2023-06-04T14:30:51;10.20;;;5.37;;
173;SDS011;75;48.784;9.364;2023-06-04T14:33:17;7.43;;;5.23;;
173;SDS011;75;48.784;9.364;2023-06-04T14:35:43;9.77;;;5.03;;
173;SDS011;75;48.784;9.364;2023-06-04T14:38:11;12.23;;;5.70;;
173;SDS011;75;48.784;9.364;2023-06-04T14:40:38;6.77;;;5.20;;
173;SDS011;75;48.784;9.364;2023-06-04T14:43:05;8.40;;;5.63;;
173;SDS011;75;48.784;9.364;2023-06-04T14:45:31;10.67;;;5.57;;
173;SDS011;75;48.784;9.364;2023-06-04T14:47:57;7.90;;;5.10;;
173;SDS011;75;48.784;9.364;2023-06-04T14:50:23;7.13;;;5.03;;
173;SDS011;75;48.784;9.364;2023-06-04T14:52:48;10.57;;;5.90;;
173;SDS011;75;48.784;9.364;2023-06-04T14:55:14;8.27;;;4.93;;
173;SDS011;75;48.784;9.364;2023-06-04T14:57:40;6.30;;;4.70;;
173;SDS011;75;48.784;9.364;2023-06-04T15:00:06;7.00;;;5.60;;
173;SDS011;75;48.784;9.364;2023-06-04T15:02:33;8.70;;;5.20;;
173;SDS011;75;48.784;9.364;2023-06-04T15:04:58;7.87;;;5.00;;
173;SDS011;75;48.784;9.364;2023-06-04T15:07:24;9.27;;;5.00;;
173;SDS011;75;48.784;9.364;2023-06-04T15:09:50;8.97;;;5.40;;
173;SDS011;75;48.784;9.364;2023-06-04T15:12:16;7.50;;;5.50;;
173;SDS011;75;48.784;9.364;2023-06-04T15:14:44;8.27;;;5.40;;
173;SDS011;75;48.784;9.364;2023-06-04T15:17:10;8.97;;;5.70;;
173;SDS011;75;48.784;9.364;2023-06-04T15:19:36;9.83;;;5.57;;
173;SDS011;75;48.784;9.364;2023-06-04T15:22:02;8.03;;;5.20;;
173;SDS011;75;48.784;9.364;2023-06-04T15:24:28;9.53;;;5.20;;
173;SDS011;75;48.784;9.364;2023-06-04T15:26:55;10.80;;;5.40;;
173;SDS011;75;48.784;9.364;2023-06-04T15:29:20;9.43;;;5.70;;
173;SDS011;75;48.784;9.364;2023-06-04T15:31:46;10.13;;;5.27;;
173;SDS011;75;48.784;9.364;2023-06-04T15:34:12;10.20;;;5.10;;
173;SDS011;75;48.784;9.364;2023-06-04T15:36:38;6.33;;;4.77;;
173;SDS011;75;48.784;9.364;2023-06-04T15:39:04;7.07;;;5.20;;
173;SDS011;75;48.784;9.364;2023-06-04T15:41:30;8.90;;;5.50;;
173;SDS011;75;48.784;9.364;2023-06-04T15:43:56;11.07;;;5.50;;
173;SDS011;75;48.784;9.364;2023-06-04T15:46:22;8.37;;;5.20;;
173;SDS011;75;48.784;9.364;2023-06-04T15:48:49;11.00;;;5.13;;
173;SDS011;75;48.784;9.364;2023-06-04T15:51:15;7.77;;;5.20;;
173;SDS011;75;48.784;9.364;2023-06-04T15:53:41;7.00;;;4.80;;
173;SDS011;75;48.784;9.364;2023-06-04T15:56:07;9.63;;;5.47;;
173;SDS011;75;48.784;9.364;2023-06-04T15:58:33;7.07;;;5.00;;
173;SDS011;75;48.784;9.364;2023-06-04T16:00:59;9.00;;;4.70;;